sensor_id;sensor_type;location;lat;lon;timestamp;pressure;altitude;pressure_sealevel;temperature;humidity
18858;BME280;9558;50.178;8.370;2023-04-01T00:01:51;96496.88;;;9.64;99.57
18858;BME280;9558;50.178;8.370;2023-04-01T00:04:18;96500.25;;;9.65;99.64
18858;BME280;9558;50.178;8.370;2023-04-01T00:06:45;96494.66;;;9.68;99.88
18858;BME280;9558;50.178;8.370;2023-04-01T00:09:12;96497.81;;;9.70;99.32
18858;BME280;9558;50.178;8.370;2023-04-01T00:11:40;96491.09;;;9.69;99.75
18858;BME280;9558;50.178;8.370;2023-04-01T00:14:07;96484.91;;;9.70;99.28
18858;BME280;9558;50.178;8.370;2023-04-01T00:16:34;96491.09;;;9.69;99.96
18858;BME280;9558;50.178;8.370;2023-04-01T00:19:00;96489.50;;;9.68;99.37
18858;BME280;9558;50.178;8.370;2023-04-01T00:21:27;96489.94;;;9.65;100.00
18858;BME280;9558;50.178;8.370;2023-04-01T00:23:53;96487.91;;;9.67;99.99
18858;BME280;9558;50.178;8.370;2023-04-01T00:26:20;96490.69;;;9.65;99.13
18858;BME280;9558;50.178;8.370;2023-04-01T00:28:49;96483.38;;;9.62;99.55
18858;BME280;9558;50.178;8.370;2023-04-01T00:31:16;96476.84;;;9.60;99.55
18858;BME280;9558;50.178;8.370;2023-04-01T00:33:42;96484.38;;;9.61;99.83
18858;BME280;9558;50.178;8.370;2023-04-01T00:36:10;96484.03;;;9.58;100.00
18858;BME280;9558;50.178;8.370;2023-04-01T00:38:38;96489.31;;;9.63;99.94
18858;BME280;9558;50.178;8.370;2023-04-01T00:41:06;96487.56;;;9.63;99.36
18858;BME280;9558;50.178;8.370;2023-04-01T00:43:33;96486.97;;;9.61;99.62
18858;BME280;9558;50.178;8.370;2023-04-01T00:46:01;96483.38;;;9.62;99.77
18858;BME280;9558;50.178;8.370;2023-04-01T00:48:30;96484.97;;;9.63;98.64
18858;BME280;9558;50.178;8.370;2023-04-01T00:51:01;96479.00;;;9.63;99.84
18858;BME280;9558;50.178;8.370;2023-04-01T00:53:30;96478.44;;;9.61;99.96
18858;BME280;9558;50.178;8.370;2023-04-01T00:56:01;96489.31;;;9.63;99.77
18858;BME280;9558;50.178;8.370;2023-04-01T00:58:32;96480.22;;;9.60;100.00
18858;BME280;9558;50.178;8.370;2023-04-01T01:01:02;96481.66;;;9.56;100.00
18858;BME280;9558;50.178;8.370;2023-04-01T01:03:29;96474.47;;;9.58;100.00
18858;BME280;9558;50.178;8.370;2023-04-01T01:06:11;96476.69;;;9.55;100.00
18858;BME280;9558;50.178;8.370;2023-04-01T01:09:03;96472.88;;;9.57;100.00
18858;BME280;9558;50.178;8.370;2023-04-01T01:11:36;96482.66;;;9.55;100.00
18858;BME280;9558;50.178;8.370;2023-04-01T01:14:11;96482.44;;;9.57;100.00
18858;BME280;9558;50.178;8.370;2023-04-01T01:16:46;96476.53;;;9.49;100.00
18858;BME280;9558;50.178;8.370;2023-04-01T01:19:32;96479.31;;;9.48;100.00
18858;BME280;9558;50.178;8.370;2023-04-01T01:22:17;96463.19;;;9.52;100.00
18858;BME280;9558;50.178;8.370;2023-04-01T01:24:55;96476.09;;;9.52;100.00
18858;BME280;9558;50.178;8.370;2023-04-01T01:27:25;96475.53;;;9.50;100.00
18858;BME280;9558;50.178;8.370;2023-04-01T01:30:16;96467.25;;;9.42;100.00
18858;BME280;9558;50.178;8.370;2023-04-01T01:33:18;96472.22;;;9.43;100.00
18858;BME280;9558;50.178;8.370;2023-04-01T01:35:53;96475.34;;;9.45;100.00
18858;BME280;9558;50.178;8.370;2023-04-01T01:38:23;96474.19;;;9.41;100.00
18858;BME280;9558;50.178;8.370;2023-04-01T01:40:51;96472.63;;;9.40;100.00
18858;BME280;9558;50.178;8.370;2023-04-01T01:43:24;96464.28;;;9.38;100.00
18858;BME280;9558;50.178;8.370;2023-04-01T01:45:54;96470.06;;;9.40;100.00
18858;BME280;9558;50.178;8.370;2023-04-01T01:48:23;96468.91;;;9.29;100.00
18858;BME280;9558;50.178;8.370;2023-04-01T01:50:52;96459.97;;;9.32;100.00
18858;BME280;9558;50.178;8.370;2023-04-01T01:53:19;96462.75;;;9.30;100.00
18858;BME280;9558;50.178;8.370;2023-04-01T01:55:47;96461.59;;;9.26;100.00
18858;BME280;9558;50.178;8.370;2023-04-01T01:58:17;96456.78;;;9.30;100.00
18858;BME280;9558;50.178;8.370;2023-04-01T02:00:48;96454.81;;;9.32;100.00
18858;BME280;9558;50.178;8.370;2023-04-01T02:03:17;96458.81;;;9.28;100.00
18858;BME280;9558;50.178;8.370;2023-04-01T02:05:47;96456.44;;;9.26;100.00
18858;BME280;9558;50.178;8.370;2023-04-01T02:08:20;96451.63;;;9.30;100.00
18858;BME280;9558;50.178;8.370;2023-04-01T02:10:53;96448.47;;;9.28;100.00
18858;BME280;9558;50.178;8.370;2023-04-01T02:13:25;96443.31;;;9.28;100.00
18858;BME280;9558;50.178;8.370;2023-04-01T02:15:56;96446.47;;;9.30;100.00
18858;BME280;9558;50.178;8.370;2023-04-01T02:18:25;96441.09;;;9.31;100.00
18858;BME280;9558;50.178;8.370;2023-04-01T02:20:52;96441.31;;;9.30;100.00
18858;BME280;9558;50.178;8.370;2023-04-01T02:23:22;96446.88;;;9.27;100.00
18858;BME280;9558;50.178;8.370;2023-04-01T02:25:49;96449.47;;;9.27;100.00
18858;BME280;9558;50.178;8.370;2023-04-01T02:28:17;96451.63;;;9.30;100.00
18858;BME280;9558;50.178;8.370;2023-04-01T02:30:47;96448.84;;;9.31;100.00
18858;BME280;9558;50.178;8.370;2023-04-01T02:33:15;96442.47;;;9.34;100.00
18858;BME280;9558;50.178;8.370;2023-04-01T02:35:41;96443.88;;;9.30;100.00
18858;BME280;9558;50.178;8.370;2023-04-01T02:38:08;96446.84;;;9.33;100.00
18858;BME280;9558;50.178;8.370;2023-04-01T02:40:47;96444.69;;;9.30;99.78
18858;BME280;9558;50.178;8.370;2023-04-01T02:43:15;96438.50;;;9.31;100.00
18858;BME280;9558;50.178;8.370;2023-04-01T02:45:42;96437.72;;;9.31;100.00
18858;BME280;9558;50.178;8.370;2023-04-01T02:48:09;96456.00;;;9.29;100.00
18858;BME280;9558;50.178;8.370;2023-04-01T02:50:35;96440.88;;;9.33;100.00
18858;BME280;9558;50.178;8.370;2023-04-01T02:53:02;96438.72;;;9.30;100.00
18858;BME280;9558;50.178;8.370;2023-04-01T02:55:31;96445.47;;;9.31;100.00
18858;BME280;9558;50.178;8.370;2023-04-01T02:57:59;96435.56;;;9.28;98.67
18858;BME280;9558;50.178;8.370;2023-04-01T03:00:26;96441.59;;;9.22;99.81
18858;BME280;9558;50.178;8.370;2023-04-01T03:02:52;96452.06;;;9.27;100.00
18858;BME280;9558;50.178;8.370;2023-04-01T03:05:19;96442.72;;;9.26;100.00
18858;BME280;9558;50.178;8.370;2023-04-01T03:07:46;96440.00;;;9.21;100.00
18858;BME280;9558;50.178;8.370;2023-04-01T03:10:12;96444.72;;;9.24;100.00
18858;BME280;9558;50.178;8.370;2023-04-01T03:12:39;96449.72;;;9.19;100.00
18858;BME280;9558;50.178;8.370;2023-04-01T03:15:09;96435.59;;;9.21;100.00
18858;BME280;9558;50.178;8.370;2023-04-01T03:17:36;96444.16;;;9.22;100.00
18858;BME280;9558;50.178;8.370;2023-04-01T03:20:03;96440.75;;;9.28;100.00
18858;BME280;9558;50.178;8.370;2023-04-01T03:22:30;96457.06;;;9.22;100.00
18858;BME280;9558;50.178;8.370;2023-04-01T03:24:57;96448.94;;;9.18;100.00
18858;BME280;9558;50.178;8.370;2023-04-01T03:27:23;96452.16;;;9.13;100.00
18858;BME280;9558;50.178;8.370;2023-04-01T03:29:50;96458.09;;;9.14;100.00
18858;BME280;9558;50.178;8.370;2023-04-01T03:32:17;96441.63;;;9.15;100.00
18858;BME280;9558;50.178;8.370;2023-04-01T03:34:44;96445.41;;;9.12;100.00
18858;BME280;9558;50.178;8.370;2023-04-01T03:37:10;96443.81;;;9.11;100.00
18858;BME280;9558;50.178;8.370;2023-04-01T03:39:37;96450.00;;;9.10;100.00
18858;BME280;9558;50.178;8.370;2023-04-01T03:42:04;96450.78;;;9.11;100.00
18858;BME280;9558;50.178;8.370;2023-04-01T03:44:32;96446.66;;;9.03;100.00
18858;BME280;9558;50.178;8.370;2023-04-01T03:46:58;96443.81;;;9.11;100.00
18858;BME280;9558;50.178;8.370;2023-04-01T03:49:27;96453.56;;;9.09;100.00
18858;BME280;9558;50.178;8.370;2023-04-01T03:51:53;96450.97;;;9.09;100.00
18858;BME280;9558;50.178;8.370;2023-04-01T03:54:20;96446.44;;;9.05;100.00
18858;BME280;9558;50.178;8.370;2023-04-01T03:56:47;96454.19;;;9.05;100.00
18858;BME280;9558;50.178;8.370;2023-04-01T03:59:13;96438.31;;;9.01;100.00
18858;BME280;9558;50.178;8.370;2023-04-01T04:01:40;96440.91;;;9.01;100.00
18858;BME280;9558;50.178;8.370;2023-04-01T04:04:06;96444.66;;;9.05;100.00
18858;BME280;9558;50.178;8.370;2023-04-01T04:06:34;96441.53;;;8.96;100.00
18858;BME280;9558;50.178;8.370;2023-04-01T04:09:01;96444.69;;;8.98;100.00
18858;BME280;9558;50.178;8.370;2023-04-01T04:11:27;96441.09;;;8.99;100.00
18858;BME280;9558;50.178;8.370;2023-04-01T04:13:54;96434.78;;;8.95;100.00
18858;BME280;9558;50.178;8.370;2023-04-01T04:16:20;96443.31;;;8.96;100.00
18858;BME280;9558;50.178;8.370;2023-04-01T04:18:47;96443.72;;;8.93;100.00
18858;BME280;9558;50.178;8.370;2023-04-01T04:21:14;96435.19;;;8.92;100.00
18858;BME280;9558;50.178;8.370;2023-04-01T04:23:43;96439.19;;;8.88;100.00
18858;BME280;9558;50.178;8.370;2023-04-01T04:26:11;96445.72;;;8.91;100.00
18858;BME280;9558;50.178;8.370;2023-04-01T04:28:38;96438.81;;;8.85;100.00
18858;BME280;9558;50.178;8.370;2023-04-01T04:31:06;96437.59;;;8.87;100.00
18858;BME280;9558;50.178;8.370;2023-04-01T04:33:33;96449.53;;;8.81;100.00
18858;BME280;9558;50.178;8.370;2023-04-01T04:36:00;96442.00;;;8.80;100.00
18858;BME280;9558;50.178;8.370;2023-04-01T04:38:28;96442.81;;;8.80;100.00
18858;BME280;9558;50.178;8.370;2023-04-01T04:40:56;96447.97;;;8.80;100.00
18858;BME280;9558;50.178;8.370;2023-04-01T04:43:22;96437.66;;;8.80;100.00
18858;BME280;9558;50.178;8.370;2023-04-01T04:45:49;96444.38;;;8.81;100.00
18858;BME280;9558;50.178;8.370;2023-04-01T04:48:16;96447.53;;;8.84;100.00
18858;BME280;9558;50.178;8.370;2023-04-01T04:50:44;96441.22;;;8.79;100.00
18858;BME280;9558;50.178;8.370;2023-04-01T04:53:11;96447.97;;;8.80;100.00
18858;BME280;9558;50.178;8.370;2023-04-01T04:55:37;96441.78;;;8.81;100.00
18858;BME280;9558;50.178;8.370;2023-04-01T04:58:05;96444.38;;;8.81;100.00
18858;BME280;9558;50.178;8.370;2023-04-01T05:00:32;96457.47;;;8.80;100.00
18858;BME280;9558;50.178;8.370;2023-04-01T05:02:58;96451.34;;;8.74;100.00
18858;BME280;9558;50.178;8.370;2023-04-01T05:05:25;96451.94;;;8.76;100.00
18858;BME280;9558;50.178;8.370;2023-04-01T05:07:51;96443.63;;;8.74;100.00
18858;BME280;9558;50.178;8.370;2023-04-01T05:10:18;96456.34;;;8.69;100.00
18858;BME280;9558;50.178;8.370;2023-04-01T05:12:46;96454.75;;;8.68;100.00
18858;BME280;9558;50.178;8.370;2023-04-01T05:15:14;96456.72;;;8.73;100.00
18858;BME280;9558;50.178;8.370;2023-04-01T05:17:40;96455.72;;;8.74;100.00
18858;BME280;9558;50.178;8.370;2023-04-01T05:20:07;96445.41;;;8.74;100.00
18858;BME280;9558;50.178;8.370;2023-04-01T05:22:34;96450.97;;;8.71;100.00
18858;BME280;9558;50.178;8.370;2023-04-01T05:25:01;96449.19;;;8.71;100.00
18858;BME280;9558;50.178;8.370;2023-04-01T05:27:27;96447.44;;;8.65;100.00
18858;BME280;9558;50.178;8.370;2023-04-01T05:29:54;96451.22;;;8.62;100.00
18858;BME280;9558;50.178;8.370;2023-04-01T05:32:23;96444.25;;;8.63;100.00
18858;BME280;9558;50.178;8.370;2023-04-01T05:34:50;96444.66;;;8.60;100.00
18858;BME280;9558;50.178;8.370;2023-04-01T05:37:16;96444.88;;;8.58;100.00
18858;BME280;9558;50.178;8.370;2023-04-01T05:39:43;96438.53;;;8.61;100.00
18858;BME280;9558;50.178;8.370;2023-04-01T05:42:09;96438.53;;;8.61;100.00
18858;BME280;9558;50.178;8.370;2023-04-01T05:44:36;96436.56;;;8.56;100.00
18858;BME280;9558;50.178;8.370;2023-04-01T05:47:03;96439.56;;;8.53;100.00
18858;BME280;9558;50.178;8.370;2023-04-01T05:49:33;96437.19;;;8.52;100.00
18858;BME280;9558;50.178;8.370;2023-04-01T05:51:59;96438.53;;;8.54;100.00
18858;BME280;9558;50.178;8.370;2023-04-01T05:54:26;96443.34;;;8.51;100.00
18858;BME280;9558;50.178;8.370;2023-04-01T05:56:52;96442.53;;;8.50;100.00
18858;BME280;9558;50.178;8.370;2023-04-01T05:59:19;96445.31;;;8.48;100.00
18858;BME280;9558;50.178;8.370;2023-04-01T06:01:45;96451.88;;;8.44;100.00
18858;BME280;9558;50.178;8.370;2023-04-01T06:04:14;96455.63;;;8.48;100.00
18858;BME280;9558;50.178;8.370;2023-04-01T06:06:43;96438.19;;;8.51;100.00
18858;BME280;9558;50.178;8.370;2023-04-01T06:09:14;96438.59;;;8.47;100.00
18858;BME280;9558;50.178;8.370;2023-04-01T06:11:53;96445.31;;;8.48;100.00
18858;BME280;9558;50.178;8.370;2023-04-01T06:14:31;96435.81;;;8.49;100.00
18858;BME280;9558;50.178;8.370;2023-04-01T06:17:13;96435.59;;;8.51;100.00
18858;BME280;9558;50.178;8.370;2023-04-01T06:19:49;96441.94;;;8.48;100.00
18858;BME280;9558;50.178;8.370;2023-04-01T06:22:27;96448.69;;;8.42;100.00
18858;BME280;9558;50.178;8.370;2023-04-01T06:25:22;96446.13;;;8.49;100.00
18858;BME280;9558;50.178;8.370;2023-04-01T06:28:19;96450.47;;;8.48;100.00
18858;BME280;9558;50.178;8.370;2023-04-01T06:30:54;96450.66;;;8.54;100.00
18858;BME280;9558;50.178;8.370;2023-04-01T06:33:32;96444.31;;;8.56;100.00
18858;BME280;9558;50.178;8.370;2023-04-01T06:36:25;96442.91;;;8.60;100.00
18858;BME280;9558;50.178;8.370;2023-04-01T06:39:12;96444.09;;;8.58;100.00
18858;BME280;9558;50.178;8.370;2023-04-01T06:42:02;96456.38;;;8.56;100.00
18858;BME280;9558;50.178;8.370;2023-04-01T06:44:40;96446.47;;;8.59;100.00
18858;BME280;9558;50.178;8.370;2023-04-01T06:47:22;96447.66;;;8.57;100.00
18858;BME280;9558;50.178;8.370;2023-04-01T06:49:56;96455.25;;;8.52;100.00
18858;BME280;9558;50.178;8.370;2023-04-01T06:52:35;96444.50;;;8.55;100.00
18858;BME280;9558;50.178;8.370;2023-04-01T06:55:23;96440.56;;;8.52;100.00
18858;BME280;9558;50.178;8.370;2023-04-01T06:57:52;96447.50;;;8.52;100.00
18858;BME280;9558;50.178;8.370;2023-04-01T07:00:27;96461.78;;;8.47;100.00
18858;BME280;9558;50.178;8.370;2023-04-01T07:03:02;96456.03;;;8.45;100.00
18858;BME280;9558;50.178;8.370;2023-04-01T07:05:32;96451.63;;;8.53;100.00
18858;BME280;9558;50.178;8.370;2023-04-01T07:08:02;96454.81;;;8.55;100.00
18858;BME280;9558;50.178;8.370;2023-04-01T07:10:34;96454.81;;;8.55;100.00
18858;BME280;9558;50.178;8.370;2023-04-01T07:13:04;96451.22;;;8.62;100.00
18858;BME280;9558;50.178;8.370;2023-04-01T07:15:36;96449.59;;;8.68;100.00
18858;BME280;9558;50.178;8.370;2023-04-01T07:18:11;96452.75;;;8.70;100.00
18858;BME280;9558;50.178;8.370;2023-04-01T07:20:38;96445.19;;;8.75;100.00
18858;BME280;9558;50.178;8.370;2023-04-01T07:23:07;96449.94;;;8.78;100.00
18858;BME280;9558;50.178;8.370;2023-04-01T07:25:39;96452.72;;;8.84;100.00
18858;BME280;9558;50.178;8.370;2023-04-01T07:28:12;96455.06;;;8.85;100.00
18858;BME280;9558;50.178;8.370;2023-04-01T07:30:46;96461.81;;;8.86;100.00
18858;BME280;9558;50.178;8.370;2023-04-01T07:33:19;96466.53;;;8.96;100.00
18858;BME280;9558;50.178;8.370;2023-04-01T07:35:53;96462.53;;;9.00;100.00
18858;BME280;9558;50.178;8.370;2023-04-01T07:38:28;96470.84;;;9.09;100.00
18858;BME280;9558;50.178;8.370;2023-04-01T07:41:06;96473.78;;;9.12;100.00
18858;BME280;9558;50.178;8.370;2023-04-01T07:43:43;96469.03;;;9.09;100.00
18858;BME280;9558;50.178;8.370;2023-04-01T07:46:21;96474.34;;;9.14;100.00
18858;BME280;9558;50.178;8.370;2023-04-01T07:48:58;96476.38;;;9.12;100.00
18858;BME280;9558;50.178;8.370;2023-04-01T07:51:31;96473.56;;;9.14;100.00
18858;BME280;9558;50.178;8.370;2023-04-01T07:54:04;96475.53;;;9.19;100.00
18858;BME280;9558;50.178;8.370;2023-04-01T07:56:38;96480.47;;;9.20;100.00
18858;BME280;9558;50.178;8.370;2023-04-01T07:59:12;96490.44;;;9.16;100.00
18858;BME280;9558;50.178;8.370;2023-04-01T08:01:49;96485.06;;;9.18;100.00
18858;BME280;9558;50.178;8.370;2023-04-01T08:04:29;96484.50;;;9.16;100.00
18858;BME280;9558;50.178;8.370;2023-04-01T08:07:08;96489.44;;;9.18;100.00
18858;BME280;9558;50.178;8.370;2023-04-01T08:09:43;96490.84;;;9.13;100.00
18858;BME280;9558;50.178;8.370;2023-04-01T08:12:24;96495.00;;;9.14;100.00
18858;BME280;9558;50.178;8.370;2023-04-01T08:15:03;96496.38;;;9.17;100.00
18858;BME280;9558;50.178;8.370;2023-04-01T08:17:36;96501.31;;;9.19;100.00
18858;BME280;9558;50.178;8.370;2023-04-01T08:20:27;96502.91;;;9.20;100.00
18858;BME280;9558;50.178;8.370;2023-04-01T08:22:59;96506.09;;;9.22;100.00
18858;BME280;9558;50.178;8.370;2023-04-01T08:25:28;96504.84;;;9.31;100.00
18858;BME280;9558;50.178;8.370;2023-04-01T08:28:03;96503.44;;;9.35;100.00
18858;BME280;9558;50.178;8.370;2023-04-01T08:30:41;96504.81;;;9.38;100.00
18858;BME280;9558;50.178;8.370;2023-04-01T08:33:13;96506.97;;;9.41;100.00
18858;BME280;9558;50.178;8.370;2023-04-01T08:35:46;96514.25;;;9.50;100.00
18858;BME280;9558;50.178;8.370;2023-04-01T08:38:18;96503.50;;;9.54;100.00
18858;BME280;9558;50.178;8.370;2023-04-01T08:40:58;96513.59;;;9.62;100.00
18858;BME280;9558;50.178;8.370;2023-04-01T08:43:43;96513.94;;;9.65;100.00
18858;BME280;9558;50.178;8.370;2023-04-01T08:49:33;96510.59;;;9.65;100.00
18858;BME280;9558;50.178;8.370;2023-04-01T08:52:34;96520.91;;;9.65;100.00
18858;BME280;9558;50.178;8.370;2023-04-01T08:55:27;96510.94;;;9.68;100.00
18858;BME280;9558;50.178;8.370;2023-04-01T08:58:13;96519.22;;;9.77;100.00
18858;BME280;9558;50.178;8.370;2023-04-01T09:00:47;96517.66;;;9.76;100.00
18858;BME280;9558;50.178;8.370;2023-04-01T09:03:41;96514.06;;;9.77;100.00
18858;BME280;9558;50.178;8.370;2023-04-01T09:06:24;96522.81;;;9.76;100.00
18858;BME280;9558;50.178;8.370;2023-04-01T09:09:07;96525.13;;;9.84;100.00
18858;BME280;9558;50.178;8.370;2023-04-01T09:11:45;96527.13;;;9.82;100.00
18858;BME280;9558;50.178;8.370;2023-04-01T09:14:35;96526.66;;;9.92;100.00
18858;BME280;9558;50.178;8.370;2023-04-01T09:17:20;96530.19;;;9.98;100.00
18858;BME280;9558;50.178;8.370;2023-04-01T09:20:07;96535.94;;;10.00;100.00
18858;BME280;9558;50.178;8.370;2023-04-01T09:22:51;96523.91;;;10.12;100.00
18858;BME280;9558;50.178;8.370;2023-04-01T09:25:30;96525.63;;;10.18;100.00
18858;BME280;9558;50.178;8.370;2023-04-01T09:28:10;96529.38;;;10.23;100.00
18858;BME280;9558;50.178;8.370;2023-04-01T09:30:53;96527.53;;;10.30;100.00
18858;BME280;9558;50.178;8.370;2023-04-01T09:33:46;96539.47;;;10.31;100.00
18858;BME280;9558;50.178;8.370;2023-04-01T09:36:24;96546.59;;;10.35;100.00
18858;BME280;9558;50.178;8.370;2023-04-01T09:38:57;96540.56;;;10.42;100.00
18858;BME280;9558;50.178;8.370;2023-04-01T09:41:31;96538.06;;;10.35;100.00
18858;BME280;9558;50.178;8.370;2023-04-01T09:44:01;96547.00;;;10.32;100.00
18858;BME280;9558;50.178;8.370;2023-04-01T09:46:37;96535.25;;;10.36;100.00
18858;BME280;9558;50.178;8.370;2023-04-01T09:49:20;96539.06;;;10.34;100.00
18858;BME280;9558;50.178;8.370;2023-04-01T09:52:04;96555.16;;;10.36;100.00
18858;BME280;9558;50.178;8.370;2023-04-01T09:54:47;96551.97;;;10.34;100.00
18858;BME280;9558;50.178;8.370;2023-04-01T09:57:58;96550.38;;;10.33;100.00
18858;BME280;9558;50.178;8.370;2023-04-01T10:00:56;96558.13;;;10.33;100.00
18858;BME280;9558;50.178;8.370;2023-04-01T10:13:33;96558.03;;;10.46;100.00
18858;BME280;9558;50.178;8.370;2023-04-01T10:16:26;96569.75;;;10.49;100.00
18858;BME280;9558;50.178;8.370;2023-04-01T10:19:22;96563.94;;;10.53;100.00
18858;BME280;9558;50.178;8.370;2023-04-01T10:22:24;96563.50;;;10.57;100.00
18858;BME280;9558;50.178;8.370;2023-04-01T10:25:15;96568.03;;;10.61;100.00
18858;BME280;9558;50.178;8.370;2023-04-01T10:31:23;96561.69;;;10.57;100.00
18858;BME280;9558;50.178;8.370;2023-04-01T10:34:09;96569.47;;;10.57;100.00
18858;BME280;9558;50.178;8.370;2023-04-01T10:36:52;96569.47;;;10.57;100.00
18858;BME280;9558;50.178;8.370;2023-04-01T10:39:52;96564.66;;;10.61;100.00
18858;BME280;9558;50.178;8.370;2023-04-01T10:42:52;96562.63;;;10.63;100.00
18858;BME280;9558;50.178;8.370;2023-04-01T10:49:10;96576.16;;;10.65;100.00
18858;BME280;9558;50.178;8.370;2023-04-01T10:51:59;96569.97;;;10.66;100.00
18858;BME280;9558;50.178;8.370;2023-04-01T10:54:43;96569.56;;;10.69;100.00
18858;BME280;9558;50.178;8.370;2023-04-01T10:57:26;96570.06;;;10.78;100.00
18858;BME280;9558;50.178;8.370;2023-04-01T11:03:32;96562.63;;;11.00;100.00
18858;BME280;9558;50.178;8.370;2023-04-01T11:06:29;96562.13;;;11.10;100.00
18858;BME280;9558;50.178;8.370;2023-04-01T11:09:33;96561.59;;;11.19;100.00
18858;BME280;9558;50.178;8.370;2023-04-01T11:12:41;96566.34;;;11.22;100.00
18858;BME280;9558;50.178;8.370;2023-04-01T11:21:54;96572.50;;;11.40;100.00
18858;BME280;9558;50.178;8.370;2023-04-01T11:27:28;96580.63;;;11.44;100.00
18858;BME280;9558;50.178;8.370;2023-04-01T11:30:16;96573.19;;;11.47;100.00
18858;BME280;9558;50.178;8.370;2023-04-01T11:32:51;96576.25;;;11.56;100.00
18858;BME280;9558;50.178;8.370;2023-04-01T11:35:42;96579.50;;;11.51;100.00
18858;BME280;9558;50.178;8.370;2023-04-01T11:38:26;96582.41;;;11.43;100.00
18858;BME280;9558;50.178;8.370;2023-04-01T11:41:00;96591.44;;;11.40;100.00
18858;BME280;9558;50.178;8.370;2023-04-01T11:43:34;96591.22;;;11.42;100.00
18858;BME280;9558;50.178;8.370;2023-04-01T11:46:10;96593.78;;;11.42;100.00
18858;BME280;9558;50.178;8.370;2023-04-01T11:48:50;96599.25;;;11.52;100.00
18858;BME280;9558;50.178;8.370;2023-04-01T11:51:44;96593.06;;;11.53;100.00
18858;BME280;9558;50.178;8.370;2023-04-01T11:54:28;96590.13;;;11.62;100.00
18858;BME280;9558;50.178;8.370;2023-04-01T11:57:07;96583.56;;;11.78;100.00
18858;BME280;9558;50.178;8.370;2023-04-01T11:59:55;96588.53;;;11.91;100.00
18858;BME280;9558;50.178;8.370;2023-04-01T12:02:31;96591.75;;;12.05;100.00
18858;BME280;9558;50.178;8.370;2023-04-01T12:05:13;96602.91;;;12.17;100.00
18858;BME280;9558;50.178;8.370;2023-04-01T12:08:01;96593.56;;;12.28;100.00
18858;BME280;9558;50.178;8.370;2023-04-01T12:10:39;96604.28;;;12.32;100.00
18858;BME280;9558;50.178;8.370;2023-04-01T12:13:14;96617.38;;;12.37;100.00
18858;BME280;9558;50.178;8.370;2023-04-01T12:15:59;96615.34;;;12.39;100.00
18858;BME280;9558;50.178;8.370;2023-04-01T12:18:36;96609.03;;;12.35;100.00
18858;BME280;9558;50.178;8.370;2023-04-01T12:21:14;96613.09;;;12.31;100.00
18858;BME280;9558;50.178;8.370;2023-04-01T12:24:25;96623.00;;;12.34;100.00
18858;BME280;9558;50.178;8.370;2023-04-01T12:27:13;96615.91;;;12.29;100.00
18858;BME280;9558;50.178;8.370;2023-04-01T12:29:59;96618.38;;;12.24;100.00
18858;BME280;9558;50.178;8.370;2023-04-01T12:32:38;96621.41;;;12.21;100.00
18858;BME280;9558;50.178;8.370;2023-04-01T12:35:17;96620.84;;;12.19;100.00
18858;BME280;9558;50.178;8.370;2023-04-01T12:37:50;96626.84;;;12.19;100.00
18858;BME280;9558;50.178;8.370;2023-04-01T12:40:40;96628.28;;;12.15;100.00
18858;BME280;9558;50.178;8.370;2023-04-01T12:43:28;96628.63;;;12.19;100.00
18858;BME280;9558;50.178;8.370;2023-04-01T12:46:04;96628.50;;;12.14;100.00
18858;BME280;9558;50.178;8.370;2023-04-01T12:49:06;96626.16;;;12.12;100.00
18858;BME280;9558;50.178;8.370;2023-04-01T12:52:04;96624.69;;;12.16;100.00
18858;BME280;9558;50.178;8.370;2023-04-01T12:54:58;96631.81;;;12.33;100.00
18858;BME280;9558;50.178;8.370;2023-04-01T12:57:55;96622.78;;;12.47;100.00
18858;BME280;9558;50.178;8.370;2023-04-01T13:00:33;96628.19;;;12.57;100.00
18858;BME280;9558;50.178;8.370;2023-04-01T13:03:19;96635.66;;;12.66;100.00
18858;BME280;9558;50.178;8.370;2023-04-01T13:08:41;96632.25;;;12.77;100.00
18858;BME280;9558;50.178;8.370;2023-04-01T13:11:14;96627.97;;;12.71;100.00
18858;BME280;9558;50.178;8.370;2023-04-01T13:14:10;96638.59;;;12.81;100.00
18858;BME280;9558;50.178;8.370;2023-04-01T13:16:46;96638.13;;;12.84;100.00
18858;BME280;9558;50.178;8.370;2023-04-01T13:19:22;96636.78;;;12.93;100.00
18858;BME280;9558;50.178;8.370;2023-04-01T13:21:53;96636.31;;;12.96;100.00
18858;BME280;9558;50.178;8.370;2023-04-01T13:24:31;96635.75;;;13.06;100.00
18858;BME280;9558;50.178;8.370;2023-04-01T13:27:05;96640.78;;;13.13;100.00
18858;BME280;9558;50.178;8.370;2023-04-01T13:29:36;96641.91;;;13.17;100.00
18858;BME280;9558;50.178;8.370;2023-04-01T13:32:25;96637.97;;;13.14;100.00
18858;BME280;9558;50.178;8.370;2023-04-01T13:35:05;96649.16;;;13.15;100.00
18858;BME280;9558;50.178;8.370;2023-04-01T13:37:49;96654.81;;;13.12;100.00
18858;BME280;9558;50.178;8.370;2023-04-01T13:40:30;96651.19;;;13.13;100.00
18858;BME280;9558;50.178;8.370;2023-04-01T13:43:03;96645.88;;;13.20;100.00
18858;BME280;9558;50.178;8.370;2023-04-01T13:45:41;96650.75;;;13.16;100.00
18858;BME280;9558;50.178;8.370;2023-04-01T13:48:29;96659.09;;;13.18;100.00
18858;BME280;9558;50.178;8.370;2023-04-01T13:51:18;96645.78;;;13.03;100.00
18858;BME280;9558;50.178;8.370;2023-04-01T13:54:15;96652.34;;;12.93;100.00
18858;BME280;9558;50.178;8.370;2023-04-01T13:56:50;96650.31;;;12.95;100.00
18858;BME280;9558;50.178;8.370;2023-04-01T13:59:43;96655.50;;;12.95;100.00
18858;BME280;9558;50.178;8.370;2023-04-01T14:02:33;96654.72;;;12.95;100.00
18858;BME280;9558;50.178;8.370;2023-04-01T14:05:19;96659.88;;;13.07;100.00
18858;BME280;9558;50.178;8.370;2023-04-01T14:08:01;96663.63;;;13.11;100.00
18858;BME280;9558;50.178;8.370;2023-04-01T14:10:37;96649.69;;;13.17;100.00
18858;BME280;9558;50.178;8.370;2023-04-01T14:13:09;96653.31;;;13.28;100.00
18858;BME280;9558;50.178;8.370;2023-04-01T14:15:48;96656.34;;;13.37;100.00
18858;BME280;9558;50.178;8.370;2023-04-01T14:18:26;96658.50;;;13.40;100.00
18858;BME280;9558;50.178;8.370;2023-04-01T14:21:08;96664.13;;;13.48;100.00
18858;BME280;9558;50.178;8.370;2023-04-01T14:23:51;96669.50;;;13.59;100.00
18858;BME280;9558;50.178;8.370;2023-04-01T14:26:30;96663.25;;;13.72;100.00
18858;BME280;9558;50.178;8.370;2023-04-01T14:29:11;96659.81;;;13.83;100.00